Teixeira de Freitas, Brazil
Current Conditions -  °F | °C
As of 5:00 PM on Monday 20 Oct 2014 (Local Time) from SBPS Reporting Station
Few Clouds Few Clouds  
Wind Chill: 79°   Ceiling: Unl
Heat Index: 81°   Visibility: 6mi
Dew Point: 70°   Wind: 16mph
Humidity: 74%   Direction: 40°NE
Pressure: 29.85"   Gusts: NA
Location:  17.54°S, 39.74°W
Report Text: SBPS 202000Z 04014KT 9999 FEW020 26/21 Q1011
Loading
Personal Weather Stations






























Interactive Weather Map
Tropical Storm Tracking
New forecast layout! Learn more

10-Day Weather Forecast

Advertisements
Track Severe Weather on mobile